Montopolis, Texas
Current Conditions -  °F | °C
As of 12:53 AM on Sunday 23 Nov 2014 (Local Time) from KAUS Reporting Station
Broken Clouds Broken Clouds  
Wind Chill: 57°   Ceiling: 15000
Heat Index: 57°   Visibility: 10mi
Dew Point: 56°   Wind: 0mph
Humidity: 96%   Direction: NA
Pressure: 29.68"   Gusts: NA
Location:  30.2284°N, 97.7133°W
Report Text: KAUS 230653Z 00000KT 10SM SCT090 BKN150 14/14 A2968 RMK AO2 SLP048 T01390133 $
Loading
Personal Weather Stations






























Interactive Weather Map New forecast layout! Learn more

10-Day Weather Forecast

Advertisements
Track Severe Weather on mobile